Terminal Aerodrome Forecast
Issued by NWS Springfield, MO

Home | Current Version | Previous Version | Text Only | Print | Product List | Glossary On
Versions: 1 2 3 4 5 6 7 8 9 10 11 12 13 14 15 16 17 18 19 20 21 22 23 24 25 26 27 28
000
FTUS43 KSGF 242300 RRA
TAFSGF
TAF
KSGF 242344Z 2500/2524 VRB06KT P6SM -SHRA VCTS SCT010CB BKN070
      OVC100
      TEMPO 2500/2503 6SM -TSRA BR SCT007 OVC020CB
     FM250300 VRB06KT P6SM -SHRA SCT007 OVC020
     FM250700 19006KT P6SM SCT010
      TEMPO 2509/2513 2SM BR SCT004
     FM251300 17006KT 4SM BR SCT004
      TEMPO 2513/2515 2SM BR
     FM251600 18012G20KT P6SM SCT030 BKN250=

USA.gov is the U.S. government's official web portal to all federal, state and local government web resources and services.